Webcam Zuidwest  Webcam Zuidwest


Onweer radar more information blitzortung!


Regen radar more information rain snow radar


Weerstation Noordbergum

Weerstation Luyksgestel

Website Noardburgum


U vindt ons ook hier:

Het Weer Aktueel

UK Metoffice

European Weather Network

Weather Underground

AWEKAS

Citizen Weather Observer Program (CWOP)

HAMweather, WeatherForYou, PWS Weather



METAR rapporten vliegvelden

   
EHLW - Leeuwarden Rnlaf, Netherlands
Afstand tot: W 17 km
Gewijzigd: 09-12-2021 07:25
Nevel, Helder  
Nevel, Helder  
   Wind: ZZO 16.7 km/h
Wind: ZZO 16.7 km/h
Temperatuur: 1°C
Voelt als: -3°C
Dauwpunt: 0°C
Vochtigheid: 93%
Barometer: 1000 hPa
Bewolking: Helder
Zicht: 7 km
Bewolking: Helder
EHLW 090625Z AUTO 16009KT 130V190 7000 BR NCD 01/00 Q1000 WHT
EHMA - Awg-1 Sea, Netherlands
Afstand tot: N 31 km
Gewijzigd: 09-12-2021 07:25
Helder  
Helder  
   Wind: Zuiden 31.5 km/h
Wind: Zuiden 31.5 km/h
Temperatuur: 1°C
Voelt als: -6°C
Dauwpunt: 1°C
Vochtigheid: 100%
Barometer: 1000 hPa
Bewolking: Helder
Zicht: 6 km
Bewolking: Helder
EHMA 090625Z AUTO 17017KT 6000 NCD 01/01 Q1000
EHGG - Groningen/Eelde, Netherlands
Afstand tot: OZO 40 km
Gewijzigd: 09-12-2021 07:25
Helder  
Helder  
   Wind: ZZO 11.1 km/h
Wind: ZZO 11.1 km/h
Temperatuur: 0°C
Voelt als: -3°C
Dauwpunt: 0°C
Vochtigheid: 100%
Barometer: 1001 hPa
Bewolking: Helder
Zicht: 8 km
Bewolking: Helder
EHGG 090625Z AUTO 15006KT 130V190 8000 NCD 00/M00 Q1001 TEMPO 7000
EHVL - Vlieland Island, Netherlands
Afstand tot: W 72 km
Gewijzigd: 09-12-2021 07:25
Bewolking  
Bewolking  
   Wind: Zuiden 31.5 km/h
Wind: Zuiden 31.5 km/h
Temperatuur: 4°C
Voelt als: -1°C
Dauwpunt: 2°C
Vochtigheid: 87%
Barometer: 999 hPa
Bewolking: Bewolking
Bewolking: Licht bewolkt 4700 ft,
Gedeeltelijk bewolkt 6100 ft,
Bewolking 7700 ft
EHVL 090625Z AUTO 19017KT //// // FEW047 SCT061 OVC077 04/02 Q0999 RE//
EHMG - L9-Ff-1 Sea, Netherlands
Afstand tot: WNW 81 km
Gewijzigd: 09-12-2021 07:25
Licht bewolkt  
Licht bewolkt  
   Wind: Zuiden 46.3 km/h
Wind: Zuiden 46.3 km/h
Temperatuur: 6°C
Voelt als: 0°C
Dauwpunt: 4°C
Vochtigheid: 87%
Barometer: 1000 hPa
Bewolking: Licht bewolkt
Zicht: meer dan 10 km
Bewolking: Licht bewolkt 700 ft,
Licht bewolkt 1500 ft
EHMG 090625Z AUTO 19025KT 9999 FEW007 FEW015CB 06/04 Q1000
EHKD - De Kooy (navy), Netherlands
Afstand tot: WZW 89 km
Gewijzigd: 09-12-2021 07:25
Bewolking  
Bewolking  
   Wind: Zuiden 22.2 km/h
Wind: Zuiden 22.2 km/h
Temperatuur: 3°C
Voelt als: -2°C
Dauwpunt: 1°C
Vochtigheid: 87%
Barometer: 999 hPa
Bewolking: Bewolking
Zicht: meer dan 10 km
Bewolking: Licht bewolkt 1500 ft,
Grotendeels bewolkt 3200 ft,
Bewolking 3800 ft
EHKD 090625Z AUTO 17012KT 9999 FEW015CB BKN032 OVC038 03/01 Q0999 BLU TEMPO 4500 SHRA FEW007 SCT015 SCT018CB BKN020

Script ontwikkeld door  Saratoga-weather.org Aangepast voor de template door  Weerstation Leuven

Apparatuur in gebruik:

Weerstation
Davis Vantage pro 2

Weerprogramma
Meteobridge

Weercomputer
Meteobridge Nano SD

Webleverancier
Versio

Davis Vantage pro 2

Meteobridge

Meteobridge Nano SD

Versio